Time;durP1;ratioP1;P1;durP2;ratioP2;P2;SDS_P1;SDS_P2;PMS_P1;PMS_P2;Temp;Humidity;BMP_temperature;BMP_pressure;BME280_temperature;BME280_humidity;BME280_pressure;Samples;Min_cycle;Max_cycle;Signal;HPM_P1;HPM_P2
2022/09/20 04:21:46;;;;;;;5.35;3.40;;;;;;;8.07;100.00;100355.00;5558360;32;169274;-89
2022/09/20 04:25:05;;;;;;;6.70;3.30;;;;;;;8.01;100.00;100357.00;5542562;32;34589;-89
2022/09/20 04:28:33;;;;;;;4.93;3.75;;;;;;;8.02;100.00;100366.66;5543247;32;34606;-88
2022/09/20 04:31:45;;;;;;;7.75;3.70;;;;;;;8.05;100.00;100363.91;5552909;32;33871;-87
2022/09/20 04:38:25;;;;;;;6.70;3.80;;;;;;;8.13;100.00;100361.78;5557368;32;34008;-87
2022/09/20 04:42:14;;;;;;;3.75;3.45;;;;;;;8.07;100.00;100362.03;5556966;32;34732;-87
2022/09/20 04:45:54;;;;;;;4.65;3.70;;;;;;;8.06;100.00;100377.03;5544381;32;33712;-88
2022/09/20 04:49:05;;;;;;;3.67;3.37;;;;;;;8.13;100.00;100377.66;5553245;32;34654;-87
2022/09/20 04:52:45;;;;;;;3.28;3.05;;;;;;;8.12;100.00;100388.28;5543504;32;33833;-88
2022/09/20 04:55:53;;;;;;;5.30;3.80;;;;;;;8.24;100.00;100390.44;5543025;32;34096;-89
2022/09/20 04:59:08;;;;;;;4.37;3.58;;;;;;;8.22;100.00;100387.00;5544014;32;33574;-87
2022/09/20 05:02:22;;;;;;;4.55;3.60;;;;;;;8.26;100.00;100385.97;5543484;32;34199;-88
2022/09/20 05:05:50;;;;;;;4.32;3.72;;;;;;;8.27;100.00;100387.69;5546129;32;33786;-88
2022/09/20 05:09:28;;;;;;;5.78;3.87;;;;;;;8.28;100.00;100392.03;5532003;32;33567;-88
2022/09/20 05:12:53;;;;;;;5.20;4.28;;;;;;;8.36;100.00;100389.09;5508707;32;33736;-89
2022/09/20 05:16:01;;;;;;;5.53;3.58;;;;;;;8.35;100.00;100390.88;5530418;32;33775;-88
2022/09/20 05:19:07;;;;;;;5.60;3.78;;;;;;;8.38;100.00;100386.37;5547084;32;35096;-87
2022/09/20 05:22:47;;;;;;;4.55;3.40;;;;;;;8.45;100.00;100387.88;5547555;32;34538;-89
2022/09/20 05:26:07;;;;;;;4.95;3.55;;;;;;;8.54;100.00;100379.56;5535678;32;34456;-88
2022/09/20 05:29:27;;;;;;;3.70;3.40;;;;;;;8.59;100.00;100390.81;5527800;32;33937;-88
2022/09/20 05:32:41;;;;;;;5.57;3.30;;;;;;;8.62;100.00;100389.84;5527451;32;34504;-88
2022/09/20 05:36:05;;;;;;;5.10;3.75;;;;;;;8.50;100.00;100385.87;5515086;32;33098;-89
2022/09/20 05:39:27;;;;;;;5.10;3.87;;;;;;;8.52;100.00;100391.12;5522604;32;33698;-89
2022/09/20 05:43:10;;;;;;;4.30;3.80;;;;;;;8.53;100.00;100392.84;5512292;32;33972;-88
2022/09/20 05:46:39;;;;;;;4.60;3.45;;;;;;;8.67;100.00;100400.22;5528123;32;34190;-89
2022/09/20 05:49:57;;;;;;;4.43;3.60;;;;;;;8.91;100.00;100408.94;5531658;32;33104;-88
2022/09/20 05:57:11;;;;;;;6.40;3.30;;;;;;;9.22;100.00;100409.38;5553936;32;34201;-88
2022/09/20 06:00:18;;;;;;;4.70;3.10;;;;;;;9.81;100.00;100414.75;5536585;32;32846;-90
2022/09/20 06:30:23;;;;;;;4.75;3.50;;;;;;;11.16;100.00;100410.03;5541589;32;20108;-89
2022/09/20 06:33:29;;;;;;;7.47;3.37;;;;;;;11.27;100.00;100409.50;5542776;32;34060;-89
2022/09/20 08:38:56;;;;;;;3.03;2.25;;;;;;;19.61;50.46;100498.19;5397089;32;32225;-89
2022/09/20 08:42:26;;;;;;;3.12;2.20;;;;;;;19.50;51.44;100491.88;5397262;33;35026;-90
2022/09/20 08:45:29;;;;;;;12.32;2.72;;;;;;;19.13;51.71;100490.47;5400785;32;33109;-88
2022/09/20 08:48:40;;;;;;;3.05;2.30;;;;;;;18.00;55.95;100491.56;5463824;27;35185;-92
2022/09/20 08:59:30;;;;;;;2.40;2.17;;;;;;;19.29;51.64;100494.56;1843994;27;20101;-89
2022/09/20 09:02:33;;;;;;;4.28;2.30;;;;;;;18.58;54.65;100487.84;5443291;32;34161;-89
2022/09/20 09:05:48;;;;;;;3.30;2.20;;;;;;;18.32;54.30;100486.28;5442000;32;33251;-90
2022/09/20 09:08:52;;;;;;;2.15;1.95;;;;;;;17.37;57.93;100487.44;5424356;32;32597;-88
2022/09/20 09:11:57;;;;;;;3.15;2.03;;;;;;;17.07;56.93;100480.75;5436642;32;35093;-90
2022/09/20 09:15:28;;;;;;;3.87;2.33;;;;;;;17.21;57.38;100487.75;5437343;32;33926;-90
2022/09/20 09:18:42;;;;;;;4.07;2.30;;;;;;;17.17;57.98;100483.59;5438013;32;32655;-87
2022/09/20 09:21:45;;;;;;;2.58;1.58;;;;;;;17.27;57.29;100478.38;5454745;32;33817;-88
2022/09/20 09:25:15;;;;;;;2.37;2.17;;;;;;;17.07;58.27;100481.63;5442959;32;32460;-87
2022/09/20 09:28:22;;;;;;;3.47;2.00;;;;;;;16.82;57.73;100472.72;5449573;32;33835;-90
2022/09/20 09:31:26;;;;;;;3.83;2.00;;;;;;;16.54;61.19;100468.53;5442543;32;34028;-91
2022/09/20 09:34:34;;;;;;;2.72;2.10;;;;;;;16.67;60.83;100476.53;5439689;32;33836;-88
2022/09/20 09:37:37;;;;;;;2.78;2.08;;;;;;;17.07;59.38;100467.34;5426317;32;33522;-91
2022/09/20 09:52:15;;;;;;;6.85;2.25;;;;;;;17.84;56.54;100463.25;4014699;30;20109;-90
2022/09/20 10:17:56;;;;;;;4.20;1.62;;;;;;;19.65;49.45;100457.41;5435595;32;32216;-86
2022/09/20 10:21:06;;;;;;;3.50;1.60;;;;;;;19.25;49.82;100453.63;5435674;32;34634;-87
2022/09/20 10:24:33;;;;;;;1.80;1.70;;;;;;;21.32;43.51;100458.72;5437832;32;33906;-87
2022/09/20 10:28:02;;;;;;;1.80;1.70;;;;;;;19.22;48.10;100464.63;5436748;32;34750;-87
2022/09/20 10:31:12;;;;;;;1.90;1.80;;;;;;;18.52;51.99;100461.47;5415810;32;33765;-87
2022/09/20 10:34:30;;;;;;;2.00;1.80;;;;;;;18.69;53.77;100458.25;5427733;32;33034;-86
2022/09/20 10:37:59;;;;;;;2.12;1.85;;;;;;;19.83;50.00;100454.09;5435565;32;34394;-87
2022/09/20 10:45:05;;;;;;;2.15;1.95;;;;;;;18.68;51.40;100453.00;5468452;27;32555;-89
2022/09/20 10:48:17;;;;;;;7.60;2.30;;;;;;;18.91;52.28;100445.69;5443162;32;33829;-91
2022/09/20 10:51:44;;;;;;;1.70;1.60;;;;;;;18.10;52.80;100444.22;5490214;27;33761;31
2022/09/20 11:06:38;;;;;;;1.52;1.42;;;;;;;21.98;44.23;100423.75;5418303;32;20106;-90
2022/09/20 11:10:23;;;;;;;2.72;1.67;;;;;;;20.50;46.52;100439.28;5435038;27;32929;-90
2022/09/20 11:21:20;;;;;;;2.15;2.00;;;;;;;19.63;51.20;100443.25;5280537;30;20138;-88
2022/09/20 11:24:35;;;;;;;2.05;1.95;;;;;;;19.62;49.88;100433.44;5444946;32;33490;-89
2022/09/20 11:35:21;;;;;;;8.73;2.83;;;;;;;18.07;55.08;100436.44;969392;27;20419;-89
2022/09/20 11:38:39;;;;;;;2.05;1.95;;;;;;;17.61;55.86;100435.56;5526126;27;32908;-89
2022/09/20 11:49:19;;;;;;;2.35;1.77;;;;;;;17.62;57.00;100422.03;5333844;30;20400;-88
2022/09/20 11:53:10;;;;;;;2.20;1.48;;;;;;;18.10;53.21;100425.44;5450448;32;34927;-87
2022/09/20 11:56:12;;;;;;;1.70;1.60;;;;;;;17.91;52.86;100412.63;5445586;32;33762;-86
2022/09/20 11:59:38;;;;;;;2.58;1.70;;;;;;;18.25;52.69;100414.44;5452811;32;34913;-88
2022/09/20 12:14:00;;;;;;;1.80;1.42;;;;;;;17.65;53.50;100386.03;5267289;27;20435;-88
2022/09/20 12:17:04;;;;;;;2.40;1.45;;;;;;;17.12;56.66;100395.50;5436363;32;35058;-89
2022/09/20 12:20:31;;;;;;;2.45;1.98;;;;;;;17.44;55.25;100393.97;5426730;32;34045;-88
2022/09/20 12:23:41;;;;;;;5.43;1.33;;;;;;;16.97;56.35;100395.69;5453341;32;34039;-87
2022/09/20 12:26:44;;;;;;;2.08;1.15;;;;;;;16.81;54.94;100389.78;5425797;32;32874;-91
2022/09/20 12:30:02;;;;;;;3.08;1.35;;;;;;;16.16;56.66;100401.62;5423791;32;32553;-91
2022/09/20 12:33:19;;;;;;;1.20;1.20;;;;;;;16.59;56.14;100394.06;5434320;32;34585;-86
2022/09/20 12:36:22;;;;;;;2.33;1.70;;;;;;;16.49;57.18;100393.91;5445914;32;34189;-87
2022/09/20 12:39:30;;;;;;;3.95;1.87;;;;;;;16.53;57.58;100399.91;5443895;32;34458;-88
2022/09/20 12:46:25;;;;;;;2.50;1.40;;;;;;;16.13;59.69;100409.91;2314026;27;20082;-88
2022/09/20 12:53:15;;;;;;;1.00;1.00;;;;;;;15.68;62.17;100401.53;5425113;32;33593;-87
2022/09/20 12:56:25;;;;;;;1.42;1.20;;;;;;;15.57;61.41;100397.78;5441150;32;34699;-86
2022/09/20 12:59:29;;;;;;;1.37;1.27;;;;;;;15.57;61.32;100400.47;5438546;32;33996;-87
2022/09/20 13:02:51;;;;;;;2.92;1.60;;;;;;;15.90;60.74;100400.84;5435901;32;33639;-87
2022/09/20 13:06:06;;;;;;;2.42;1.60;;;;;;;16.04;60.46;100389.16;5446354;32;34444;-88
2022/09/20 13:09:12;;;;;;;2.35;1.70;;;;;;;15.80;62.20;100391.75;5445777;32;33976;-87
2022/09/20 13:12:15;;;;;;;2.08;1.60;;;;;;;15.74;64.91;100401.09;5446055;32;34591;-87
2022/09/20 13:15:20;;;;;;;3.30;1.65;;;;;;;15.57;67.01;100388.91;5434063;32;32823;-88
2022/09/20 13:18:26;;;;;;;2.45;2.17;;;;;;;15.84;67.24;100393.25;5450879;32;34641;-87
2022/09/20 13:21:31;;;;;;;1.90;1.80;;;;;;;15.29;65.84;100390.84;5446318;32;34508;-88
2022/09/20 13:24:47;;;;;;;3.90;2.10;;;;;;;15.02;69.75;100389.97;5443692;32;33823;-89
2022/09/20 13:28:02;;;;;;;2.33;2.10;;;;;;;15.04;72.96;100392.53;5439737;32;34278;-87
2022/09/20 13:31:26;;;;;;;3.53;2.00;;;;;;;14.87;71.24;100397.22;5449931;27;33855;-88
2022/09/20 13:34:29;;;;;;;2.75;2.00;;;;;;;14.77;71.62;100394.31;5445537;32;34414;-90
2022/09/20 13:49:22;;;;;;;6.20;2.10;;;;;;;15.27;70.24;100395.44;5446177;32;20117;-90
2022/09/20 13:52:27;;;;;;;1.67;1.58;;;;;;;15.41;69.72;100384.66;5433767;32;33668;-88
2022/09/20 13:55:37;;;;;;;1.83;1.50;;;;;;;15.95;66.54;100389.84;5448310;32;35252;-88
2022/09/20 13:58:41;;;;;;;2.53;1.80;;;;;;;16.16;65.80;100380.22;5437809;32;33746;-86
2022/09/20 14:01:50;;;;;;;2.15;1.85;;;;;;;16.47;64.25;100386.97;5435013;32;34055;-87
2022/09/20 14:04:54;;;;;;;2.35;2.00;;;;;;;16.05;64.66;100393.56;5435492;32;33994;-85
2022/09/20 14:07:59;;;;;;;5.68;1.85;;;;;;;16.14;63.64;100392.03;5440969;32;34506;-88
2022/09/20 14:11:13;;;;;;;3.72;1.60;;;;;;;16.81;62.56;100392.47;5439758;32;34653;-86
2022/09/20 14:14:17;;;;;;;1.37;1.23;;;;;;;17.07;59.96;100398.56;5438262;32;33982;-86
2022/09/20 14:17:28;;;;;;;1.33;1.23;;;;;;;16.21;56.88;100400.47;5437699;32;33931;-90
2022/09/20 14:20:31;;;;;;;1.17;1.08;;;;;;;16.18;57.81;100398.84;5427509;32;32500;-92
2022/09/20 14:23:50;;;;;;;1.08;0.95;;;;;;;16.01;55.04;100403.63;5455402;32;33792;-88
2022/09/20 14:27:04;;;;;;;2.87;1.15;;;;;;;15.65;56.23;100397.25;5447763;32;33847;-87
2022/09/20 14:30:36;;;;;;;0.68;0.68;;;;;;;14.78;56.99;100404.03;5443452;32;34501;-88
2022/09/20 14:33:43;;;;;;;1.15;0.90;;;;;;;14.53;58.59;100410.09;5430948;32;33001;-88
2022/09/20 14:36:48;;;;;;;2.08;0.98;;;;;;;14.45;58.92;100415.97;5440113;32;33026;-87
2022/09/20 14:39:56;;;;;;;1.75;1.00;;;;;;;14.54;59.39;100419.84;5449002;32;34124;-88
2022/09/20 14:43:02;;;;;;;0.75;0.60;;;;;;;14.22;60.17;100417.44;5450990;32;34202;-87
2022/09/20 14:46:15;;;;;;;0.73;0.73;;;;;;;13.90;61.63;100423.03;5451498;32;33700;-87
2022/09/20 14:49:18;;;;;;;0.82;0.80;;;;;;;14.08;62.51;100424.53;5451267;32;33298;-87
2022/09/20 14:52:37;;;;;;;1.02;0.60;;;;;;;13.99;62.38;100428.62;5452721;32;33937;-87
2022/09/20 14:56:05;;;;;;;1.08;0.77;;;;;;;13.87;63.32;100421.41;5452998;32;33795;-87
2022/09/20 14:59:08;;;;;;;3.03;1.10;;;;;;;13.87;63.88;100421.41;5453757;32;34060;-88
2022/09/20 15:02:14;;;;;;;0.85;0.85;;;;;;;13.84;65.05;100417.13;5454575;32;33641;-91
2022/09/20 15:05:22;;;;;;;1.58;1.05;;;;;;;13.92;65.24;100427.31;5452849;32;34347;-91
2022/09/20 15:08:26;;;;;;;1.08;0.98;;;;;;;14.11;65.33;100424.34;5453213;32;33988;-88
2022/09/20 15:11:28;;;;;;;1.65;1.20;;;;;;;13.87;65.34;100429.41;5447509;32;32278;-88
2022/09/20 15:14:32;;;;;;;1.25;1.15;;;;;;;13.64;67.35;100438.84;5447773;32;32778;-88
2022/09/20 15:17:42;;;;;;;2.12;1.50;;;;;;;13.78;67.82;100441.50;5453887;32;34208;-88
2022/09/20 15:20:48;;;;;;;3.00;1.40;;;;;;;13.73;69.28;100436.47;5457998;32;34058;-87
2022/09/20 15:23:51;;;;;;;1.52;1.37;;;;;;;13.51;69.73;100449.38;5460596;32;35158;-88
2022/09/20 15:26:53;;;;;;;1.95;1.50;;;;;;;13.58;70.54;100448.94;5455868;32;34494;-87
2022/09/20 15:29:56;;;;;;;1.45;1.27;;;;;;;13.50;70.24;100461.00;5451718;32;32422;-87
2022/09/20 15:32:59;;;;;;;1.50;1.27;;;;;;;13.14;69.94;100457.75;5449771;32;32826;-88
2022/09/20 15:36:04;;;;;;;1.40;1.30;;;;;;;13.20;71.15;100457.41;5451739;32;32478;-87
2022/09/20 15:39:08;;;;;;;1.25;1.05;;;;;;;12.76;73.13;100457.25;5452884;32;33882;-88
2022/09/20 15:42:10;;;;;;;1.45;1.20;;;;;;;12.87;72.85;100467.28;5455594;32;34431;-88
2022/09/20 15:45:13;;;;;;;1.48;1.35;;;;;;;12.52;76.30;100467.47;5456671;32;34084;-88
2022/09/20 15:48:21;;;;;;;2.87;2.00;;;;;;;12.27;79.24;100471.50;5466170;32;34062;-88
